Time;durP1;ratioP1;P1;durP2;ratioP2;P2;SDS_P1;SDS_P2;PMS_P1;PMS_P2;Temp;Humidity;BMP_temperature;BMP_pressure;BME280_temperature;BME280_humidity;BME280_pressure;Samples;Min_cycle;Max_cycle;Signal;HPM_P1;HPM_P2
2023/08/21 00:02:33;;;;;;;11.30;9.13;;;;;;;;;;10429754;28;20434;-96
2023/08/21 00:13:33;;;;;;;10.33;8.97;;;;;;;;;;2459548;22;20394;-96
2023/08/21 00:18:40;;;;;;;10.70;8.20;;;;;;;;;;10488601;28;20452;-95
2023/08/21 00:23:45;;;;;;;10.35;8.60;;;;;;;;;;10558084;22;20420;-95
2023/08/21 00:46:01;;;;;;;11.77;8.40;;;;;;;;;;10420950;28;20423;-95
2023/08/21 00:51:04;;;;;;;12.00;8.88;;;;;;;;;;10412213;28;20411;-96
2023/08/21 00:56:31;;;;;;;9.88;8.38;;;;;;;;;;10476663;22;20389;-96
2023/08/21 01:01:37;;;;;;;9.13;8.05;;;;;;;;;;10446846;28;20428;-96
2023/08/21 01:06:39;;;;;;;9.07;8.18;;;;;;;;;;10461732;28;20398;-96
2023/08/21 01:11:50;;;;;;;8.55;7.68;;;;;;;;;;10433534;28;20427;-96
2023/08/21 01:28:23;;;;;;;14.57;8.57;;;;;;;;;;2717248;22;20422;31
2023/08/21 01:33:30;;;;;;;9.35;8.40;;;;;;;;;;10415570;28;20423;-95
2023/08/21 01:38:35;;;;;;;10.53;8.87;;;;;;;;;;10417012;28;20446;-96
2023/08/21 01:43:37;;;;;;;11.48;8.80;;;;;;;;;;10416019;28;20469;-96
2023/08/21 01:48:41;;;;;;;11.43;8.57;;;;;;;;;;10419761;28;20399;-96
2023/08/21 01:53:44;;;;;;;11.07;9.07;;;;;;;;;;10417752;28;20391;-96
2023/08/21 01:58:47;;;;;;;9.90;8.32;;;;;;;;;;10417134;28;20419;-96
2023/08/21 02:03:50;;;;;;;10.13;8.88;;;;;;;;;;10416331;28;20431;-96
2023/08/21 02:09:04;;;;;;;11.27;8.73;;;;;;;;;;10416660;28;20482;-96
2023/08/21 02:14:07;;;;;;;10.97;8.70;;;;;;;;;;10405644;28;20383;-96
2023/08/21 02:19:11;;;;;;;11.95;8.77;;;;;;;;;;10416395;28;20434;-96
2023/08/21 02:24:14;;;;;;;11.00;9.40;;;;;;;;;;10422424;28;20449;-96
2023/08/21 02:29:16;;;;;;;10.40;8.75;;;;;;;;;;10424771;28;20441;-96
2023/08/21 02:34:20;;;;;;;10.07;8.90;;;;;;;;;;10424671;28;20395;-95
2023/08/21 02:39:23;;;;;;;12.02;8.75;;;;;;;;;;10424465;28;20415;-96
2023/08/21 02:44:25;;;;;;;9.98;8.68;;;;;;;;;;10423919;28;20461;-96
2023/08/21 02:49:44;;;;;;;10.03;8.53;;;;;;;;;;10423512;28;20407;-96
2023/08/21 02:54:47;;;;;;;10.73;8.57;;;;;;;;;;10423358;28;20406;-96
2023/08/21 02:59:49;;;;;;;10.38;8.90;;;;;;;;;;10422746;28;20413;-96
2023/08/21 03:04:53;;;;;;;10.48;8.57;;;;;;;;;;10423192;28;20407;-96
2023/08/21 03:09:56;;;;;;;13.23;9.05;;;;;;;;;;10423646;28;20459;-96
2023/08/21 03:14:58;;;;;;;9.55;8.55;;;;;;;;;;10423340;28;20399;-96
2023/08/21 03:20:04;;;;;;;10.40;8.73;;;;;;;;;;10411515;28;20415;-92
2023/08/21 03:25:07;;;;;;;11.50;8.70;;;;;;;;;;10422709;28;20425;-96
2023/08/21 03:30:10;;;;;;;10.43;8.27;;;;;;;;;;10421606;28;20411;-96
2023/08/21 03:35:14;;;;;;;11.55;8.10;;;;;;;;;;10422137;28;20415;-96
2023/08/21 03:40:18;;;;;;;9.60;8.07;;;;;;;;;;10423278;28;20425;-96
2023/08/21 03:45:31;;;;;;;9.55;8.55;;;;;;;;;;10422590;28;20399;-96
2023/08/21 03:50:35;;;;;;;10.18;8.43;;;;;;;;;;10421527;28;20428;-96
2023/08/21 03:55:37;;;;;;;11.77;8.50;;;;;;;;;;10420884;28;20438;-96
2023/08/21 04:00:40;;;;;;;12.07;8.57;;;;;;;;;;10421958;28;20419;-96
2023/08/21 04:05:45;;;;;;;9.73;8.70;;;;;;;;;;10422185;28;20411;-96
2023/08/21 04:23:00;;;;;;;11.18;9.02;;;;;;;;;;2782242;26;20467;-93
2023/08/21 04:28:03;;;;;;;9.82;8.82;;;;;;;;;;10436089;28;20411;-96
2023/08/21 04:33:06;;;;;;;11.68;9.23;;;;;;;;;;10457111;28;20440;-95
2023/08/21 04:38:10;;;;;;;13.47;9.50;;;;;;;;;;10435986;28;20415;-96
2023/08/21 04:43:13;;;;;;;12.80;9.43;;;;;;;;;;10438404;28;20413;-95
2023/08/21 04:48:15;;;;;;;10.50;8.88;;;;;;;;;;10440861;28;20406;-96
2023/08/21 04:53:29;;;;;;;10.73;9.03;;;;;;;;;;10444475;28;20436;-96
2023/08/21 04:58:31;;;;;;;10.03;8.77;;;;;;;;;;10441329;28;21077;-96
2023/08/21 05:03:33;;;;;;;11.87;9.10;;;;;;;;;;10449440;28;20379;-96
2023/08/21 05:08:37;;;;;;;10.35;8.95;;;;;;;;;;10431551;28;20399;-96
2023/08/21 05:13:43;;;;;;;11.77;9.27;;;;;;;;;;10441371;28;20410;-96
2023/08/21 05:18:45;;;;;;;11.03;9.20;;;;;;;;;;10438609;28;20425;-96
2023/08/21 05:29:06;;;;;;;10.77;9.18;;;;;;;;;;10433329;28;20440;-95
2023/08/21 05:39:26;;;;;;;11.53;9.27;;;;;;;;;;10436781;28;20425;-96
2023/08/21 05:44:28;;;;;;;13.30;9.38;;;;;;;;;;10440882;28;20378;-96
2023/08/21 05:49:35;;;;;;;11.27;9.27;;;;;;;;;;10559720;22;20453;-96
2023/08/21 05:54:39;;;;;;;10.00;8.80;;;;;;;;;;10474299;28;20407;-96
2023/08/21 05:59:49;;;;;;;11.90;9.48;;;;;;;;;;10474205;28;20455;-96
2023/08/21 06:04:52;;;;;;;10.33;8.87;;;;;;;;;;10455373;28;20413;-96
2023/08/21 06:09:56;;;;;;;13.87;9.50;;;;;;;;;;10453292;28;20427;-96
2023/08/21 06:14:59;;;;;;;9.95;8.93;;;;;;;;;;10453653;28;20420;-96
2023/08/21 06:20:03;;;;;;;12.70;9.15;;;;;;;;;;10457304;28;20428;-96
2023/08/21 06:25:10;;;;;;;12.73;9.23;;;;;;;;;;10457923;28;20390;-96
2023/08/21 06:30:13;;;;;;;11.95;9.10;;;;;;;;;;10465659;28;20448;-96
2023/08/21 06:35:17;;;;;;;12.23;9.30;;;;;;;;;;10474165;28;20414;-96
2023/08/21 06:45:42;;;;;;;12.63;9.07;;;;;;;;;;10468029;28;20409;-96
2023/08/21 06:50:44;;;;;;;10.03;8.57;;;;;;;;;;10468606;28;20406;-96
2023/08/21 07:01:10;;;;;;;12.70;9.40;;;;;;;;;;10340997;28;20449;-96
2023/08/21 07:06:14;;;;;;;10.03;8.50;;;;;;;;;;10336948;28;20445;-96
2023/08/21 07:11:23;;;;;;;10.30;8.87;;;;;;;;;;10357449;28;20406;-96
2023/08/21 07:16:27;;;;;;;10.33;8.87;;;;;;;;;;10447354;22;20438;-95
2023/08/21 07:26:52;;;;;;;10.32;8.68;;;;;;;;;;10676550;22;20400;-95
2023/08/21 07:31:54;;;;;;;10.35;8.75;;;;;;;;;;10492309;28;20472;-96
2023/08/21 07:36:56;;;;;;;12.38;8.48;;;;;;;;;;10485194;22;20423;-95
2023/08/21 07:42:00;;;;;;;9.50;8.50;;;;;;;;;;10460029;28;20427;-95
2023/08/21 09:03:54;;;;;;;10.60;7.82;;;;;;;;;;10491000;28;20479;-95
2023/08/21 09:08:57;;;;;;;9.43;7.63;;;;;;;;;;10511354;28;20896;-95
2023/08/21 09:19:24;;;;;;;9.15;7.85;;;;;;;;;;10510849;28;20425;-96
2023/08/21 09:24:26;;;;;;;9.00;7.90;;;;;;;;;;10491654;28;20394;-96
2023/08/21 09:29:40;;;;;;;8.95;8.00;;;;;;;;;;10497428;28;20402;-96
2023/08/21 09:34:45;;;;;;;10.38;7.90;;;;;;;;;;10502757;28;20406;-96
2023/08/21 09:39:48;;;;;;;10.40;8.38;;;;;;;;;;10520323;28;20414;-96
2023/08/21 09:44:56;;;;;;;8.37;7.40;;;;;;;;;;10511942;28;20416;-96
2023/08/21 09:50:01;;;;;;;7.90;7.13;;;;;;;;;;10501569;28;20402;-96
2023/08/21 09:55:09;;;;;;;6.93;6.23;;;;;;;;;;10506795;28;20443;-96
2023/08/21 10:00:15;;;;;;;6.90;6.23;;;;;;;;;;10500091;28;20420;-95
2023/08/21 10:10:48;;;;;;;8.07;6.20;;;;;;;;;;10528205;28;20406;-96
2023/08/21 10:15:51;;;;;;;8.05;7.25;;;;;;;;;;10509798;28;20441;-96
2023/08/21 10:20:54;;;;;;;8.65;7.07;;;;;;;;;;10504843;28;20483;-96
2023/08/21 10:26:00;;;;;;;8.43;6.93;;;;;;;;;;10500889;28;20422;-96
2023/08/21 10:31:33;;;;;;;6.95;6.35;;;;;;;;;;10506964;28;20432;-96
2023/08/21 10:37:12;;;;;;;7.55;6.72;;;;;;;;;;10492578;28;20429;-96
2023/08/21 10:42:16;;;;;;;7.40;6.70;;;;;;;;;;10495185;28;20479;-96
2023/08/21 10:47:22;;;;;;;7.33;6.63;;;;;;;;;;10512172;28;20434;-96
2023/08/21 10:52:27;;;;;;;8.68;7.15;;;;;;;;;;10520412;28;20746;-96
2023/08/21 10:57:35;;;;;;;7.35;6.65;;;;;;;;;;10509640;28;20400;-96
2023/08/21 11:02:40;;;;;;;8.48;6.57;;;;;;;;;;10515674;28;20908;-96
2023/08/21 11:07:45;;;;;;;8.18;6.85;;;;;;;;;;10511800;28;20439;-96
2023/08/21 11:12:55;;;;;;;7.32;6.60;;;;;;;;;;10504858;28;20422;-96
2023/08/21 11:18:00;;;;;;;7.75;6.90;;;;;;;;;;10504324;28;20441;-90
2023/08/21 11:23:06;;;;;;;8.43;7.13;;;;;;;;;;10515671;28;20398;-96
2023/08/21 11:28:10;;;;;;;9.05;7.32;;;;;;;;;;10516335;28;20382;-96
2023/08/21 11:33:14;;;;;;;7.47;6.43;;;;;;;;;;10487958;28;20396;-96
2023/08/21 11:38:18;;;;;;;7.85;7.03;;;;;;;;;;10485305;28;20395;-96
2023/08/21 11:43:23;;;;;;;8.47;7.17;;;;;;;;;;10484643;28;20404;-96
2023/08/21 11:48:25;;;;;;;9.48;7.70;;;;;;;;;;10487026;28;20439;-96
2023/08/21 11:53:36;;;;;;;8.43;7.60;;;;;;;;;;10510853;28;20394;-96
2023/08/21 11:58:41;;;;;;;9.75;7.20;;;;;;;;;;10501714;28;20444;-96
2023/08/21 12:03:54;;;;;;;8.00;7.30;;;;;;;;;;10499483;28;20416;-96
2023/08/21 12:08:56;;;;;;;7.60;6.60;;;;;;;;;;10514293;28;20436;-93
2023/08/21 12:14:00;;;;;;;7.57;6.87;;;;;;;;;;10506143;28;20402;-96
2023/08/21 12:19:03;;;;;;;8.35;6.78;;;;;;;;;;10506518;28;20950;-96
2023/08/21 12:24:06;;;;;;;7.57;6.82;;;;;;;;;;10509373;28;20398;-96
2023/08/21 12:29:10;;;;;;;7.77;6.97;;;;;;;;;;10502083;28;20416;-96
2023/08/21 12:34:13;;;;;;;15.17;7.83;;;;;;;;;;10485717;28;20438;-96
2023/08/21 12:39:16;;;;;;;8.70;7.15;;;;;;;;;;10488539;28;20524;-96
2023/08/21 12:44:20;;;;;;;8.60;7.07;;;;;;;;;;10486013;28;20404;-96
2023/08/21 12:49:22;;;;;;;10.05;7.32;;;;;;;;;;10477946;28;20458;-94
2023/08/21 12:54:24;;;;;;;7.93;7.13;;;;;;;;;;10464427;22;20479;-90
2023/08/21 12:59:28;;;;;;;8.32;7.05;;;;;;;;;;10411286;28;20483;-91
2023/08/21 13:04:30;;;;;;;12.40;7.03;;;;;;;;;;10389600;28;20889;-89
2023/08/21 13:09:33;;;;;;;7.70;6.93;;;;;;;;;;10402396;28;20409;-85
2023/08/21 13:14:37;;;;;;;7.80;7.10;;;;;;;;;;10403724;28;20975;-91
2023/08/21 13:19:41;;;;;;;9.33;7.07;;;;;;;;;;10404274;28;21704;-85
2023/08/21 13:24:44;;;;;;;7.30;6.70;;;;;;;;;;10396846;28;20475;-92
2023/08/21 13:29:48;;;;;;;7.80;7.03;;;;;;;;;;10399882;28;20429;-95
2023/08/21 13:34:50;;;;;;;8.98;6.82;;;;;;;;;;10413061;28;20448;-96
2023/08/21 13:39:54;;;;;;;7.87;6.70;;;;;;;;;;10404049;28;20405;-95
2023/08/21 13:44:58;;;;;;;7.07;6.40;;;;;;;;;;10424214;28;20389;-96
2023/08/21 16:33:21;;;;;;;7.07;6.07;;;;;;;;;;1685481;22;20677;-95
2023/08/21 16:38:24;;;;;;;6.73;6.03;;;;;;;;;;10448854;28;20493;-96
2023/08/21 16:43:26;;;;;;;6.95;6.05;;;;;;;;;;10441946;28;20424;-96
2023/08/21 16:48:30;;;;;;;6.68;6.00;;;;;;;;;;10445345;28;20447;-96
2023/08/21 16:53:32;;;;;;;7.63;6.70;;;;;;;;;;10446844;28;20504;-90
2023/08/21 16:58:34;;;;;;;6.63;6.03;;;;;;;;;;10440998;28;20911;-93
2023/08/21 17:03:38;;;;;;;10.43;7.00;;;;;;;;;;10446290;28;20420;-90
2023/08/21 17:08:40;;;;;;;9.45;6.43;;;;;;;;;;10439040;28;20473;-88
2023/08/21 17:13:45;;;;;;;8.60;6.38;;;;;;;;;;10440432;28;20451;-90
2023/08/21 17:18:48;;;;;;;8.13;6.47;;;;;;;;;;10453381;28;20442;-91
2023/08/21 17:23:51;;;;;;;6.83;6.10;;;;;;;;;;10464544;28;20857;-90
2023/08/21 17:28:53;;;;;;;6.75;6.18;;;;;;;;;;10439704;28;20415;-90
2023/08/21 17:33:57;;;;;;;6.97;6.13;;;;;;;;;;10436422;28;20417;-89
2023/08/21 17:38:59;;;;;;;7.78;6.82;;;;;;;;;;10436244;28;21030;-88
2023/08/21 17:44:02;;;;;;;10.97;6.70;;;;;;;;;;10435689;28;20447;-90
2023/08/21 17:49:06;;;;;;;8.25;6.40;;;;;;;;;;10438487;28;20446;-89
2023/08/21 17:54:08;;;;;;;8.77;6.30;;;;;;;;;;10432290;28;20496;-89
2023/08/21 17:59:10;;;;;;;9.80;6.70;;;;;;;;;;10430356;28;20854;-90
2023/08/21 18:04:14;;;;;;;9.73;6.20;;;;;;;;;;10434502;28;20882;-91
2023/08/21 18:09:18;;;;;;;7.78;6.22;;;;;;;;;;10438071;28;20450;-92
2023/08/21 18:14:21;;;;;;;7.20;6.13;;;;;;;;;;10438131;28;20426;-88
2023/08/21 18:19:24;;;;;;;8.07;6.53;;;;;;;;;;10436895;28;20420;-91
2023/08/21 18:24:27;;;;;;;9.27;6.35;;;;;;;;;;10435697;28;20448;-90
2023/08/21 18:29:29;;;;;;;8.37;6.70;;;;;;;;;;10435271;28;20484;-89
2023/08/21 18:34:33;;;;;;;9.25;6.82;;;;;;;;;;10431298;28;20415;-90
2023/08/21 18:39:35;;;;;;;10.32;6.72;;;;;;;;;;10430393;28;20611;-90
2023/08/21 18:44:37;;;;;;;8.55;7.15;;;;;;;;;;10439441;28;20420;-90
2023/08/21 18:49:41;;;;;;;10.95;7.07;;;;;;;;;;10441729;28;20407;-90
2023/08/21 18:54:44;;;;;;;10.18;7.13;;;;;;;;;;10444935;28;20420;-90
2023/08/21 18:59:46;;;;;;;10.87;8.13;;;;;;;;;;10439466;28;20875;-93
2023/08/21 19:04:49;;;;;;;12.20;7.93;;;;;;;;;;10435018;28;20514;-89
2023/08/21 19:09:52;;;;;;;9.50;7.53;;;;;;;;;;10435078;28;20417;-92
2023/08/21 19:14:54;;;;;;;12.23;7.77;;;;;;;;;;10435416;28;20807;-94
2023/08/21 19:19:58;;;;;;;9.55;7.05;;;;;;;;;;10446008;28;20416;-92
2023/08/21 19:25:00;;;;;;;11.63;7.82;;;;;;;;;;10451486;28;20415;-92
2023/08/21 19:30:05;;;;;;;9.90;7.57;;;;;;;;;;10440518;28;20452;-90
2023/08/21 19:35:10;;;;;;;9.30;7.90;;;;;;;;;;10448466;28;20403;-90
2023/08/21 19:40:12;;;;;;;10.57;8.13;;;;;;;;;;10446154;28;20416;-92
2023/08/21 19:45:19;;;;;;;8.53;7.60;;;;;;;;;;10445546;28;20465;-91
2023/08/21 19:50:22;;;;;;;12.38;8.25;;;;;;;;;;10443843;28;20403;-90
2023/08/21 19:55:25;;;;;;;10.77;8.32;;;;;;;;;;10441390;28;20416;-88
2023/08/21 20:00:28;;;;;;;11.03;7.63;;;;;;;;;;10444890;28;20889;-88
2023/08/21 20:05:31;;;;;;;11.52;8.30;;;;;;;;;;10464697;28;20408;-90
2023/08/21 20:10:33;;;;;;;11.43;9.77;;;;;;;;;;10450080;28;20423;-91
2023/08/21 20:15:36;;;;;;;18.52;12.32;;;;;;;;;;10434921;28;20527;-90
2023/08/21 20:20:46;;;;;;;13.83;8.70;;;;;;;;;;10438948;28;20482;-92
2023/08/21 20:25:50;;;;;;;10.00;8.43;;;;;;;;;;10444068;28;20416;-91
2023/08/21 20:30:52;;;;;;;10.23;8.40;;;;;;;;;;10439362;28;20420;-90
2023/08/21 20:35:57;;;;;;;10.87;8.80;;;;;;;;;;10440774;28;20489;-91
2023/08/21 20:41:03;;;;;;;10.67;9.20;;;;;;;;;;10438954;28;20943;-91
2023/08/21 20:46:07;;;;;;;13.63;9.63;;;;;;;;;;10444659;28;20565;-92
2023/08/21 20:51:10;;;;;;;16.73;9.43;;;;;;;;;;10447027;28;20428;-91
2023/08/21 20:56:13;;;;;;;12.57;9.77;;;;;;;;;;10448466;28;20450;-91
2023/08/21 21:01:16;;;;;;;12.70;9.50;;;;;;;;;;10446219;28;20482;-91
2023/08/21 21:06:20;;;;;;;13.30;10.70;;;;;;;;;;10445834;28;20481;-91
2023/08/21 21:11:22;;;;;;;13.57;11.20;;;;;;;;;;10444113;28;21020;-92
2023/08/21 21:16:25;;;;;;;11.70;10.50;;;;;;;;;;10454835;28;20995;-92
2023/08/21 21:21:28;;;;;;;13.33;10.10;;;;;;;;;;10446494;28;20480;-92
2023/08/21 21:26:31;;;;;;;13.57;10.90;;;;;;;;;;10441229;28;20464;-90
2023/08/21 21:31:33;;;;;;;12.33;10.30;;;;;;;;;;10437108;28;20415;-90
2023/08/21 21:36:40;;;;;;;12.23;10.60;;;;;;;;;;10438179;28;20419;-91
2023/08/21 21:41:42;;;;;;;12.93;10.60;;;;;;;;;;10432367;28;20812;-91
2023/08/21 21:46:45;;;;;;;13.57;11.48;;;;;;;;;;10438500;28;20419;-90
2023/08/21 21:51:48;;;;;;;12.77;11.27;;;;;;;;;;10445847;28;20486;-90
2023/08/21 21:56:51;;;;;;;14.07;11.20;;;;;;;;;;10442931;28;21170;-91
2023/08/21 22:01:53;;;;;;;13.85;11.13;;;;;;;;;;10440742;28;20458;-92
2023/08/21 22:06:57;;;;;;;11.75;10.50;;;;;;;;;;10449857;28;20995;-91
2023/08/21 22:11:59;;;;;;;13.50;11.37;;;;;;;;;;10449992;28;20404;-91
2023/08/21 22:17:02;;;;;;;13.43;11.00;;;;;;;;;;10450932;28;20830;-91
2023/08/21 22:22:06;;;;;;;12.13;10.87;;;;;;;;;;10441848;28;21125;-90
2023/08/21 22:27:08;;;;;;;13.77;10.90;;;;;;;;;;10430790;28;20412;-92
2023/08/21 22:32:10;;;;;;;11.80;10.57;;;;;;;;;;10443703;28;20917;-90
2023/08/21 22:37:14;;;;;;;11.73;10.03;;;;;;;;;;10437779;28;20469;-91
2023/08/21 22:42:16;;;;;;;11.07;9.98;;;;;;;;;;10456305;28;20419;-90
2023/08/21 22:47:20;;;;;;;11.13;9.98;;;;;;;;;;10467302;28;20771;-92
2023/08/21 22:52:23;;;;;;;11.50;10.10;;;;;;;;;;10467514;28;20407;-91
2023/08/21 22:57:26;;;;;;;12.85;11.00;;;;;;;;;;10470599;28;20402;-92
2023/08/21 23:02:28;;;;;;;12.35;10.52;;;;;;;;;;10433118;28;20423;-91
2023/08/21 23:07:33;;;;;;;14.10;11.30;;;;;;;;;;10444227;28;20426;-92
2023/08/21 23:12:36;;;;;;;13.63;11.13;;;;;;;;;;10446551;28;20474;-91
2023/08/21 23:17:38;;;;;;;14.27;11.73;;;;;;;;;;10438930;28;20742;-91
2023/08/21 23:22:41;;;;;;;12.40;11.10;;;;;;;;;;10444473;28;20489;-92
2023/08/21 23:27:44;;;;;;;13.63;10.90;;;;;;;;;;10418969;28;20409;-92
2023/08/21 23:32:46;;;;;;;15.33;10.77;;;;;;;;;;10450975;28;20469;-92
2023/08/21 23:37:50;;;;;;;11.37;10.17;;;;;;;;;;10449651;28;20407;-91
2023/08/21 23:42:53;;;;;;;12.80;11.00;;;;;;;;;;10441902;28;20481;-91
2023/08/21 23:47:56;;;;;;;14.45;11.10;;;;;;;;;;10443426;28;20404;-92
2023/08/21 23:53:03;;;;;;;13.32;10.15;;;;;;;;;;10435047;28;20416;-92
2023/08/21 23:58:06;;;;;;;12.32;10.20;;;;;;;;;;10438137;28;20400;-92
